createdAt,value
2023-05-02T00:01:29.914Z,99.90
2023-05-02T00:04:53.806Z,99.90
2023-05-02T00:08:16.532Z,99.90
2023-05-02T00:11:38.467Z,99.90
2023-05-02T00:15:01.250Z,99.90
2023-05-02T00:18:22.889Z,99.90
2023-05-02T00:21:48.901Z,99.90
2023-05-02T00:25:10.550Z,99.90
2023-05-02T00:28:32.295Z,99.90
2023-05-02T00:31:54.046Z,99.90
2023-05-02T00:35:16.461Z,99.90
2023-05-02T00:38:39.522Z,99.90
2023-05-02T00:42:01.420Z,99.90
2023-05-02T00:45:23.388Z,99.90
2023-05-02T00:48:45.420Z,99.90
2023-05-02T00:52:08.132Z,99.90
2023-05-02T00:55:31.394Z,99.90
2023-05-02T00:58:53.893Z,99.90
2023-05-02T01:02:32.520Z,99.90
2023-05-02T01:05:59.337Z,99.90
2023-05-02T01:09:26.512Z,99.90
2023-05-02T01:12:54.215Z,99.90
2023-05-02T01:16:16.137Z,99.90
2023-05-02T01:19:39.207Z,99.90
2023-05-02T01:23:04.724Z,99.90
2023-05-02T01:26:29.815Z,99.90
2023-05-02T01:29:52.958Z,99.90
2023-05-02T01:33:15.437Z,99.90
2023-05-02T01:36:38.776Z,99.90
2023-05-02T01:40:01.529Z,99.90
2023-05-02T01:43:24.402Z,99.90
2023-05-02T01:46:47.998Z,99.90
2023-05-02T01:50:11.407Z,99.90
2023-05-02T01:53:34.118Z,99.90
2023-05-02T01:56:56.456Z,99.90
2023-05-02T02:00:18.510Z,99.90
2023-05-02T02:03:41.820Z,99.90
2023-05-02T02:07:06.115Z,99.90
2023-05-02T02:10:29.545Z,99.90
2023-05-02T02:13:54.950Z,99.90
2023-05-02T02:17:21.959Z,99.90
2023-05-02T02:20:46.530Z,99.90
2023-05-02T02:24:08.758Z,99.90
2023-05-02T02:27:30.522Z,99.90
2023-05-02T02:30:52.252Z,99.90
2023-05-02T02:34:13.926Z,99.90
2023-05-02T02:37:39.257Z,99.90
2023-05-02T02:41:03.914Z,99.90
2023-05-02T02:44:28.335Z,99.90
2023-05-02T02:47:51.162Z,99.90
2023-05-02T02:51:13.520Z,99.90
2023-05-02T02:54:39.522Z,99.90
2023-05-02T02:58:04.116Z,99.90
2023-05-02T03:01:27.781Z,99.90
2023-05-02T03:04:51.521Z,99.90
2023-05-02T03:08:13.166Z,99.90
2023-05-02T03:11:36.074Z,99.90
2023-05-02T03:15:02.421Z,99.90
2023-05-02T03:18:24.032Z,99.90
2023-05-02T03:21:45.606Z,99.90
2023-05-02T03:25:07.614Z,99.90
2023-05-02T03:28:30.903Z,99.90
2023-05-02T03:31:52.798Z,99.90
2023-05-02T03:35:14.478Z,99.90
2023-05-02T03:38:36.296Z,99.90
2023-05-02T03:41:58.036Z,99.90
2023-05-02T03:45:20.968Z,99.90
2023-05-02T03:48:42.575Z,99.90
2023-05-02T03:52:04.642Z,99.90
2023-05-02T03:55:26.354Z,99.90
2023-05-02T03:58:48.847Z,99.90
2023-05-02T04:02:11.896Z,99.90
2023-05-02T04:05:33.537Z,99.90
2023-05-02T04:08:55.134Z,99.90
2023-05-02T04:12:16.724Z,99.90
2023-05-02T04:15:38.437Z,99.90
2023-05-02T04:19:05.458Z,99.90
2023-05-02T04:22:27.097Z,99.90
2023-05-02T04:25:52.141Z,99.90
2023-05-02T04:29:13.719Z,99.90
2023-05-02T04:32:35.365Z,99.90
2023-05-02T04:35:58.404Z,99.90
2023-05-02T04:39:20.022Z,99.90
2023-05-02T04:42:41.634Z,99.90
2023-05-02T04:46:04.133Z,99.90
2023-05-02T04:49:25.861Z,99.90
2023-05-02T04:52:48.850Z,99.90
2023-05-02T04:56:10.443Z,99.90
2023-05-02T04:59:32.031Z,99.90
2023-05-02T05:02:54.075Z,99.90
2023-05-02T05:06:15.877Z,99.90
2023-05-02T05:09:38.818Z,99.90
2023-05-02T05:13:00.397Z,99.90
2023-05-02T05:16:22.017Z,99.90
2023-05-02T05:19:43.788Z,99.90
2023-05-02T05:23:05.369Z,99.90
2023-05-02T05:26:28.351Z,99.90
2023-05-02T05:29:49.939Z,99.90
2023-05-02T05:33:11.653Z,99.90
2023-05-02T05:36:33.341Z,99.90
2023-05-02T05:39:54.935Z,99.90
2023-05-02T05:43:17.947Z,99.90
2023-05-02T05:46:39.605Z,99.90
2023-05-02T05:50:01.632Z,99.90
2023-05-02T05:53:23.560Z,99.90
2023-05-02T05:56:45.152Z,99.90
2023-05-02T06:00:08.891Z,99.90
2023-05-02T06:03:30.888Z,99.90
2023-05-02T06:06:52.891Z,99.90
2023-05-02T06:10:14.579Z,99.90
2023-05-02T06:13:36.190Z,99.90
2023-05-02T06:17:00.070Z,99.90
2023-05-02T06:20:21.666Z,99.90
2023-05-02T06:23:43.258Z,99.90
2023-05-02T06:27:04.846Z,99.90
2023-05-02T06:30:26.429Z,99.90
2023-05-02T06:33:49.351Z,99.90
2023-05-02T06:37:11.025Z,99.90
2023-05-02T06:40:34.226Z,99.90
2023-05-02T06:43:55.817Z,99.90
2023-05-02T06:47:17.447Z,99.90
2023-05-02T06:50:40.444Z,99.90
2023-05-02T06:54:02.047Z,99.90
2023-05-02T06:57:24.185Z,99.90
2023-05-02T07:00:45.940Z,99.90
2023-05-02T07:04:07.678Z,99.90
2023-05-02T07:07:30.700Z,99.90
2023-05-02T07:10:52.238Z,99.90
2023-05-02T07:14:13.821Z,99.90
2023-05-02T07:17:35.634Z,99.90
2023-05-02T07:20:57.313Z,99.90
2023-05-02T07:24:20.258Z,99.90
2023-05-02T07:27:41.841Z,99.90
2023-05-02T07:31:03.415Z,99.90
2023-05-02T07:34:25.057Z,99.90
2023-05-02T07:37:46.634Z,99.90
2023-05-02T07:41:09.576Z,99.90
2023-05-02T07:44:32.021Z,99.90
2023-05-02T07:47:53.673Z,99.90
2023-05-02T07:51:15.260Z,99.90
2023-05-02T07:54:36.825Z,99.90
2023-05-02T07:57:59.767Z,99.90
2023-05-02T08:01:21.387Z,99.90
2023-05-02T08:04:43.083Z,99.90
2023-05-02T08:08:04.948Z,99.90
2023-05-02T08:11:26.575Z,99.90
2023-05-02T08:14:49.532Z,99.90
2023-05-02T08:18:14.167Z,99.90
2023-05-02T08:21:35.840Z,99.90
2023-05-02T08:24:57.463Z,99.90
2023-05-02T08:28:19.035Z,99.90
2023-05-02T08:31:42.072Z,99.90
2023-05-02T08:35:04.078Z,99.90
2023-05-02T08:38:25.674Z,99.90
2023-05-02T08:41:47.339Z,99.90
2023-05-02T08:45:10.735Z,99.90
2023-05-02T08:48:35.285Z,99.90
2023-05-02T08:51:57.903Z,99.90
2023-05-02T08:55:19.894Z,99.90
2023-05-02T08:58:41.621Z,99.90
2023-05-02T09:02:05.471Z,99.90
2023-05-02T09:05:28.922Z,99.90
2023-05-02T09:08:51.064Z,99.90
2023-05-02T09:12:12.639Z,99.90
2023-05-02T09:15:34.213Z,99.90
2023-05-02T09:18:56.521Z,99.90
2023-05-02T09:22:23.896Z,99.90
2023-05-02T09:25:45.948Z,99.90
2023-05-02T09:29:07.538Z,99.90
2023-05-02T09:32:44.046Z,99.90
2023-05-02T09:36:06.166Z,99.90
2023-05-02T09:39:29.136Z,99.90
2023-05-02T09:42:50.799Z,99.90
2023-05-02T09:46:12.544Z,99.90
2023-05-02T09:49:43.676Z,99.90
2023-05-02T09:53:06.103Z,99.90
2023-05-02T09:56:29.157Z,99.90
2023-05-02T09:59:54.176Z,99.90
2023-05-02T10:03:16.697Z,99.90
2023-05-02T10:06:38.444Z,99.90
2023-05-02T10:10:01.430Z,98.30
2023-05-02T10:13:24.885Z,99.90
2023-05-02T10:16:51.794Z,95.90
2023-05-02T10:20:14.357Z,95.10
2023-05-02T10:23:36.067Z,94.60
2023-05-02T10:26:58.166Z,93.20
2023-05-02T10:30:21.666Z,94.10
2023-05-02T10:33:43.641Z,94.90
2023-05-02T10:37:05.241Z,94.20
2023-05-02T10:40:26.943Z,94.50
2023-05-02T10:43:48.914Z,94.70
2023-05-02T10:47:21.341Z,96.30
2023-05-02T10:50:43.624Z,95.70
2023-05-02T10:54:24.078Z,96.30
2023-05-02T10:58:09.825Z,97.10
2023-05-02T11:01:37.580Z,94.70
2023-05-02T11:05:01.275Z,94.80
2023-05-02T11:08:30.402Z,98.60
2023-05-02T11:11:51.992Z,95.80
2023-05-02T11:15:13.682Z,96.70
2023-05-02T11:18:50.161Z,97.50
2023-05-02T11:22:30.523Z,99.60
2023-05-02T11:25:54.036Z,95.70
2023-05-02T11:29:38.910Z,95.50
2023-05-02T11:33:16.708Z,97.00
2023-05-02T11:36:38.298Z,96.50
2023-05-02T11:40:10.070Z,97.30
2023-05-02T11:43:33.060Z,96.00
2023-05-02T11:46:55.389Z,97.00
2023-05-02T11:50:17.466Z,95.20
2023-05-02T11:53:40.337Z,94.50
2023-05-02T11:57:01.956Z,94.40
2023-05-02T12:00:28.069Z,94.90
2023-05-02T12:03:49.898Z,92.70
2023-05-02T12:07:12.417Z,93.50
2023-05-02T12:10:37.217Z,94.00
2023-05-02T12:13:58.846Z,92.60
2023-05-02T12:17:22.193Z,94.40
2023-05-02T12:20:44.683Z,93.30
2023-05-02T12:24:06.281Z,95.00
2023-05-02T12:27:27.964Z,94.60
2023-05-02T12:30:51.352Z,94.10
2023-05-02T12:34:14.294Z,93.00
2023-05-02T12:37:35.973Z,92.30
2023-05-02T12:40:57.606Z,92.30
2023-05-02T12:44:35.206Z,91.70
2023-05-02T12:47:56.818Z,91.80
2023-05-02T12:51:22.865Z,92.10
2023-05-02T12:54:44.676Z,93.30
2023-05-02T12:58:08.101Z,94.60
2023-05-02T13:01:29.736Z,95.40
2023-05-02T13:04:51.325Z,94.90
2023-05-02T13:08:14.374Z,95.40
2023-05-02T13:11:35.965Z,94.30
2023-05-02T13:14:57.540Z,94.30
2023-05-02T13:18:19.157Z,93.40
2023-05-02T13:21:40.868Z,93.60
2023-05-02T13:25:06.265Z,93.50
2023-05-02T13:28:28.212Z,93.40
2023-05-02T13:31:49.814Z,95.30
2023-05-02T13:35:11.444Z,95.40
2023-05-02T13:38:33.047Z,96.00
2023-05-02T13:41:55.975Z,94.70
2023-05-02T13:45:17.564Z,95.20
2023-05-02T13:48:39.153Z,95.10
2023-05-02T13:52:00.734Z,95.70
2023-05-02T13:55:22.426Z,94.90
2023-05-02T13:58:45.328Z,96.10
2023-05-02T14:02:07.424Z,96.20
2023-05-02T14:05:29.052Z,93.60
2023-05-02T14:08:50.642Z,94.40
2023-05-02T14:12:12.242Z,93.70
2023-05-02T14:15:35.234Z,93.90
2023-05-02T14:18:56.874Z,93.70
2023-05-02T14:22:18.447Z,92.80
2023-05-02T14:25:40.030Z,92.90
2023-05-02T14:29:01.589Z,93.00
2023-05-02T14:32:24.526Z,91.30
2023-05-02T14:35:46.142Z,90.40
2023-05-02T14:39:07.750Z,90.40
2023-05-02T14:42:29.326Z,91.30
2023-05-02T14:45:50.922Z,91.80
2023-05-02T14:49:13.861Z,91.40
2023-05-02T14:52:35.429Z,91.90
2023-05-02T14:55:57.004Z,92.90
2023-05-02T14:59:18.575Z,93.70
2023-05-02T15:02:40.231Z,92.00
2023-05-02T15:06:03.359Z,91.30
2023-05-02T15:09:25.028Z,91.40
2023-05-02T15:12:46.601Z,92.50
2023-05-02T15:16:09.310Z,91.50
2023-05-02T15:19:30.947Z,91.10
2023-05-02T15:22:53.854Z,91.20
2023-05-02T15:26:15.482Z,92.90
2023-05-02T15:29:37.088Z,93.00
2023-05-02T15:32:58.721Z,93.30
2023-05-02T15:36:20.358Z,91.00
2023-05-02T15:39:43.304Z,89.50
2023-05-02T15:43:05.161Z,91.50
2023-05-02T15:46:26.875Z,91.40
2023-05-02T15:49:48.559Z,90.40
2023-05-02T15:53:10.146Z,89.80
2023-05-02T15:56:33.111Z,89.60
2023-05-02T15:59:54.708Z,90.20
2023-05-02T16:03:16.316Z,90.50
2023-05-02T16:06:38.034Z,90.40
2023-05-02T16:09:59.896Z,90.60
2023-05-02T16:13:22.985Z,91.60
2023-05-02T16:16:47.203Z,91.40
2023-05-02T16:20:10.707Z,90.90
2023-05-02T16:23:33.688Z,89.40
2023-05-02T16:26:55.268Z,90.00
2023-05-02T16:30:18.341Z,90.90
2023-05-02T16:33:40.244Z,90.40
2023-05-02T16:37:03.777Z,89.70
2023-05-02T16:40:28.332Z,89.50
2023-05-02T16:43:52.472Z,89.80
2023-05-02T16:47:15.556Z,90.60
2023-05-02T16:50:37.273Z,91.00
2023-05-02T16:53:58.909Z,91.40
2023-05-02T16:57:20.498Z,92.00
2023-05-02T17:00:42.152Z,91.40
2023-05-02T17:04:05.123Z,91.40
2023-05-02T17:07:26.708Z,91.40
2023-05-02T17:10:48.609Z,92.30
2023-05-02T17:14:10.196Z,91.80
2023-05-02T17:17:34.809Z,91.60
2023-05-02T17:20:58.564Z,91.10
2023-05-02T17:24:20.481Z,90.40
2023-05-02T17:27:46.215Z,90.40
2023-05-02T17:31:08.995Z,90.80
2023-05-02T17:34:30.557Z,91.50
2023-05-02T17:37:53.912Z,92.40
2023-05-02T17:41:17.511Z,92.40
2023-05-02T17:44:40.330Z,92.10
2023-05-02T17:48:03.968Z,91.20
2023-05-02T17:51:26.050Z,91.90
2023-05-02T17:54:49.906Z,91.20
2023-05-02T17:58:13.742Z,91.00
2023-05-02T18:01:39.307Z,91.50
2023-05-02T18:05:02.067Z,91.10
2023-05-02T18:08:25.132Z,91.40
2023-05-02T18:11:51.034Z,90.20
2023-05-02T18:15:17.906Z,90.30
2023-05-02T18:18:41.816Z,90.30
2023-05-02T18:22:08.812Z,90.50
2023-05-02T18:25:38.619Z,90.70
2023-05-02T18:29:05.428Z,91.50
2023-05-02T18:32:31.877Z,91.30
2023-05-02T18:35:58.875Z,92.10
2023-05-02T18:39:21.813Z,92.50
2023-05-02T18:42:44.921Z,92.40
2023-05-02T18:46:09.376Z,93.00
2023-05-02T18:49:35.687Z,93.80
2023-05-02T18:53:02.057Z,93.70
2023-05-02T18:56:27.532Z,94.30
2023-05-02T18:59:50.515Z,94.40
2023-05-02T19:03:14.915Z,94.90
2023-05-02T19:06:37.374Z,95.00
2023-05-02T19:09:59.651Z,95.50
2023-05-02T19:13:21.660Z,96.20
2023-05-02T19:16:46.422Z,96.90
2023-05-02T19:20:14.995Z,97.20
2023-05-02T19:23:40.322Z,97.70
2023-05-02T19:27:07.207Z,98.00
2023-05-02T19:30:31.552Z,98.00
2023-05-02T19:33:55.948Z,98.40
2023-05-02T19:37:21.877Z,98.70
2023-05-02T19:40:44.916Z,98.90
2023-05-02T19:44:08.435Z,99.00
2023-05-02T19:47:31.940Z,99.40
2023-05-02T19:50:56.963Z,99.40
2023-05-02T19:54:23.757Z,99.70
2023-05-02T19:57:49.002Z,99.90
2023-05-02T20:01:13.220Z,99.90
2023-05-02T20:04:36.853Z,99.90
2023-05-02T20:08:00.361Z,99.90
2023-05-02T20:11:24.839Z,99.90
2023-05-02T20:14:47.703Z,99.90
2023-05-02T20:18:10.315Z,99.90
2023-05-02T20:21:32.030Z,99.90
2023-05-02T20:24:53.575Z,99.90
2023-05-02T20:28:16.498Z,99.90
2023-05-02T20:31:38.104Z,99.90
2023-05-02T20:34:59.732Z,99.90
2023-05-02T20:38:21.335Z,99.90
2023-05-02T20:41:42.918Z,99.90
2023-05-02T20:45:06.823Z,99.90
2023-05-02T20:48:28.440Z,99.90
2023-05-02T20:51:50.064Z,99.90
2023-05-02T20:55:11.770Z,99.90
2023-05-02T20:58:33.415Z,99.90
2023-05-02T21:01:56.527Z,99.90
2023-05-02T21:05:18.177Z,99.90
2023-05-02T21:08:39.741Z,99.90
2023-05-02T21:12:01.307Z,99.90
2023-05-02T21:15:22.929Z,99.90
2023-05-02T21:18:46.060Z,99.90
2023-05-02T21:22:08.918Z,99.90
2023-05-02T21:25:30.688Z,99.90
2023-05-02T21:28:52.352Z,99.90
2023-05-02T21:32:14.286Z,99.90
2023-05-02T21:35:37.374Z,99.90
2023-05-02T21:38:58.999Z,99.90
2023-05-02T21:42:20.605Z,99.90
2023-05-02T21:45:45.325Z,99.90
2023-05-02T21:49:06.965Z,99.90
2023-05-02T21:52:29.876Z,99.90
2023-05-02T21:55:52.073Z,99.90
2023-05-02T21:59:13.640Z,99.90
2023-05-02T22:02:35.285Z,99.90
2023-05-02T22:05:56.960Z,99.90
2023-05-02T22:09:19.892Z,99.90
2023-05-02T22:12:43.064Z,99.90
2023-05-02T22:16:05.993Z,99.90
2023-05-02T22:19:27.636Z,99.90
2023-05-02T22:22:49.804Z,99.90
2023-05-02T22:26:13.167Z,99.90
2023-05-02T22:29:35.262Z,99.90
2023-05-02T22:32:56.911Z,99.90
2023-05-02T22:36:18.529Z,99.90
2023-05-02T22:39:40.121Z,99.90
2023-05-02T22:43:03.414Z,99.90
2023-05-02T22:46:25.791Z,99.90
2023-05-02T22:49:47.386Z,99.90
2023-05-02T22:53:10.003Z,99.90
2023-05-02T22:56:31.885Z,99.90
2023-05-02T22:59:54.815Z,99.90
2023-05-02T23:03:16.555Z,99.90
2023-05-02T23:06:38.419Z,99.90
2023-05-02T23:10:00.165Z,99.90
2023-05-02T23:13:21.992Z,99.90
2023-05-02T23:16:44.907Z,99.90
2023-05-02T23:20:07.112Z,99.90
2023-05-02T23:23:28.882Z,99.90
2023-05-02T23:26:50.589Z,99.90
2023-05-02T23:30:12.420Z,99.90
2023-05-02T23:33:35.525Z,99.90
2023-05-02T23:36:57.106Z,99.90
2023-05-02T23:40:18.940Z,99.90
2023-05-02T23:43:40.734Z,99.90
2023-05-02T23:47:02.357Z,99.90
2023-05-02T23:50:25.365Z,99.90
2023-05-02T23:53:46.935Z,99.90
2023-05-02T23:57:08.578Z,99.90
